Time;durP1;ratioP1;P1;durP2;ratioP2;P2;SDS_P1;SDS_P2;PMS_P1;PMS_P2;Temp;Humidity;BMP_temperature;BMP_pressure;BME280_temperature;BME280_humidity;BME280_pressure;Samples;Min_cycle;Max_cycle;Signal;HPM_P1;HPM_P2
2021/04/02 00:00:20;;;;;;;31.60;18.45;;;9.00;76.00;;;;;;5055722;28;20067;-81
2021/04/02 00:02:45;;;;;;;37.60;19.67;;;8.90;76.10;;;;;;5054409;28;20047;-81
2021/04/02 00:05:20;;;;;;;33.78;19.67;;;8.90;76.00;;;;;;5053305;28;20467;-81
2021/04/02 00:07:47;;;;;;;30.83;19.15;;;8.90;76.30;;;;;;5055573;28;20036;-81
2021/04/02 00:10:23;;;;;;;30.83;17.85;;;8.80;76.50;;;;;;5055462;28;20021;-81
2021/04/02 00:12:49;;;;;;;33.35;18.63;;;8.80;76.40;;;;;;5053980;28;20120;-80
2021/04/02 00:15:18;;;;;;;34.13;18.75;;;8.80;76.90;;;;;;5055412;28;20092;-80
2021/04/02 00:17:44;;;;;;;38.95;20.00;;;8.60;77.00;;;;;;5054143;28;20075;-81
2021/04/02 00:20:13;;;;;;;35.90;19.55;;;8.60;77.10;;;;;;5054136;28;20025;-82
2021/04/02 00:22:39;;;;;;;35.55;18.88;;;8.60;76.90;;;;;;5055364;28;20040;-81
2021/04/02 00:25:06;;;;;;;35.53;19.90;;;8.60;76.90;;;;;;5054005;28;20028;-81
2021/04/02 00:27:32;;;;;;;35.85;20.42;;;8.50;76.90;;;;;;5055325;28;20024;-81
2021/04/02 00:29:57;;;;;;;33.38;18.88;;;8.50;76.80;;;;;;5053923;28;20075;-81
2021/04/02 00:32:25;;;;;;;42.65;19.70;;;8.50;76.90;;;;;;5053892;28;20040;-81
2021/04/02 00:35:12;;;;;;;36.60;19.42;;;8.50;77.20;;;;;;5054985;28;20021;-80
2021/04/02 00:38:00;;;;;;;31.60;17.95;;;8.40;77.10;;;;;;5054276;28;20025;-80
2021/04/02 00:40:54;;;;;;;31.55;18.17;;;8.40;77.20;;;;;;5054269;28;20017;-82
2021/04/02 00:43:24;;;;;;;30.80;18.85;;;8.40;77.00;;;;;;5053402;28;20040;-81
2021/04/02 00:45:49;;;;;;;28.48;16.27;;;8.40;77.30;;;;;;5053733;28;20028;-81
2021/04/02 00:48:15;;;;;;;26.13;16.85;;;8.30;77.40;;;;;;5053500;28;20813;-81
2021/04/02 00:50:54;;;;;;;29.08;16.50;;;8.30;77.70;;;;;;5053452;28;20120;-81
2021/04/02 00:53:23;;;;;;;25.65;15.38;;;8.30;77.90;;;;;;5053485;28;20588;-81
2021/04/02 00:55:49;;;;;;;27.00;15.15;;;8.20;77.80;;;;;;5053422;28;20025;-81
2021/04/02 00:58:20;;;;;;;24.40;15.15;;;8.20;77.70;;;;;;5053355;28;20021;-81
2021/04/02 01:00:46;;;;;;;29.30;16.38;;;8.20;77.80;;;;;;5053311;28;20021;-81
2021/04/02 01:03:12;;;;;;;27.00;15.88;;;8.20;77.70;;;;;;5054849;28;20025;-81
2021/04/02 01:05:45;;;;;;;29.35;14.70;;;8.10;77.90;;;;;;5053122;28;20032;-80
2021/04/02 01:08:13;;;;;;;31.40;16.13;;;8.10;78.00;;;;;;5053152;28;20032;-80
2021/04/02 01:10:39;;;;;;;26.77;15.25;;;8.00;78.40;;;;;;5053150;28;20021;-81
2021/04/02 01:13:11;;;;;;;25.20;14.52;;;8.00;79.00;;;;;;5052965;28;20025;-81
2021/04/02 01:15:53;;;;;;;27.27;15.25;;;7.90;78.40;;;;;;5053008;28;20082;-81
2021/04/02 01:18:37;;;;;;;29.20;16.77;;;7.90;78.40;;;;;;5054104;28;20147;-81
2021/04/02 01:21:20;;;;;;;25.55;16.75;;;7.90;78.40;;;;;;5054397;28;20025;-80
2021/04/02 01:24:09;;;;;;;30.15;17.67;;;7.80;78.40;;;;;;5053011;28;20020;-80
2021/04/02 01:26:57;;;;;;;37.10;17.45;;;7.80;78.90;;;;;;5054190;28;20107;-81
2021/04/02 01:29:32;;;;;;;31.88;16.90;;;7.80;78.50;;;;;;5054336;28;20029;-80
2021/04/02 01:32:01;;;;;;;30.20;16.90;;;7.70;78.50;;;;;;5052601;28;20182;-81
2021/04/02 01:34:31;;;;;;;26.85;17.38;;;7.70;78.60;;;;;;5052711;28;20048;-80
2021/04/02 01:37:06;;;;;;;30.02;17.70;;;7.60;79.20;;;;;;5052397;28;20029;-80
2021/04/02 01:39:35;;;;;;;30.38;16.40;;;7.50;79.30;;;;;;5054024;28;20106;-80
2021/04/02 01:42:04;;;;;;;29.73;17.42;;;7.50;79.20;;;;;;5052676;28;20378;-80
2021/04/02 01:44:33;;;;;;;27.58;16.65;;;7.50;79.20;;;;;;5053730;28;20017;-80
2021/04/02 01:47:00;;;;;;;29.40;17.25;;;7.50;79.00;;;;;;5053737;28;20505;-81
2021/04/02 01:49:30;;;;;;;29.92;16.60;;;7.50;79.30;;;;;;5052418;28;20056;-81
2021/04/02 01:51:56;;;;;;;28.83;16.83;;;7.50;79.10;;;;;;5052488;28;20108;-80
2021/04/02 01:54:22;;;;;;;26.67;15.05;;;7.50;79.40;;;;;;5052228;28;20029;-80
2021/04/02 01:56:50;;;;;;;25.50;14.82;;;7.50;79.20;;;;;;5052501;28;20028;-81
2021/04/02 01:59:18;;;;;;;24.42;14.65;;;7.50;79.30;;;;;;5052397;28;20036;-80
2021/04/02 02:01:45;;;;;;;27.85;16.10;;;7.50;79.10;;;;;;5053645;28;20029;-80
2021/04/02 02:04:11;;;;;;;27.30;15.80;;;7.40;79.00;;;;;;5052616;28;20021;-81
2021/04/02 02:06:37;;;;;;;35.17;17.75;;;7.50;78.90;;;;;;5053724;28;20471;-80
2021/04/02 02:09:10;;;;;;;39.80;20.20;;;7.40;79.30;;;;;;5052274;28;20474;-80
2021/04/02 02:11:38;;;;;;;40.88;18.98;;;7.40;79.90;;;;;;5052191;28;20029;-80
2021/04/02 02:14:11;;;;;;;32.45;18.25;;;7.20;80.00;;;;;;5053449;28;20475;-81
2021/04/02 02:16:40;;;;;;;34.78;17.30;;;7.20;80.00;;;;;;5052078;28;20140;-80
2021/04/02 02:19:12;;;;;;;30.98;16.90;;;7.30;80.10;;;;;;5053602;28;20024;-80
2021/04/02 02:21:41;;;;;;;32.58;17.00;;;7.30;79.80;;;;;;5053300;28;20032;-81
2021/04/02 02:24:08;;;;;;;36.20;19.33;;;7.20;79.70;;;;;;5052225;28;20028;-80
2021/04/02 02:26:33;;;;;;;36.20;18.98;;;7.20;80.00;;;;;;5052163;28;20037;-80
2021/04/02 02:28:59;;;;;;;31.45;17.77;;;7.20;80.30;;;;;;5055844;28;20044;-80
2021/04/02 02:31:25;;;;;;;30.10;16.80;;;7.20;80.20;;;;;;5056344;28;20057;-81
2021/04/02 02:33:51;;;;;;;30.88;16.23;;;7.10;80.30;;;;;;5057122;28;20108;-80
2021/04/02 02:36:17;;;;;;;33.15;17.95;;;7.10;80.20;;;;;;5055998;28;20056;-80
2021/04/02 02:38:43;;;;;;;35.17;18.02;;;7.10;80.20;;;;;;5056137;28;20021;-81
2021/04/02 02:41:08;;;;;;;36.28;19.58;;;7.10;80.30;;;;;;5055510;28;20032;-79
2021/04/02 02:43:34;;;;;;;32.28;18.15;;;7.00;80.70;;;;;;5057030;28;20036;-80
2021/04/02 02:46:00;;;;;;;31.25;17.42;;;7.00;80.50;;;;;;5055916;28;20021;-81
2021/04/02 02:48:27;;;;;;;33.20;18.85;;;7.00;80.50;;;;;;5055537;28;20024;-81
2021/04/02 02:50:56;;;;;;;39.20;21.40;;;7.10;80.40;;;;;;5054703;28;20032;-81
2021/04/02 02:53:26;;;;;;;39.70;20.35;;;7.00;80.70;;;;;;5056059;28;20810;-80
2021/04/02 02:55:53;;;;;;;39.58;20.50;;;6.90;80.90;;;;;;5056405;28;20021;-80
2021/04/02 02:58:22;;;;;;;39.28;21.98;;;6.90;81.20;;;;;;5054695;28;20107;-81
2021/04/02 03:00:49;;;;;;;48.25;23.38;;;6.90;81.20;;;;;;5056198;28;20021;-81
2021/04/02 03:03:17;;;;;;;50.70;23.20;;;6.80;81.60;;;;;;5054305;28;20025;-79
2021/04/02 03:05:47;;;;;;;36.30;20.27;;;6.80;81.60;;;;;;5054032;28;20033;-80
2021/04/02 03:08:16;;;;;;;35.67;20.42;;;6.80;81.20;;;;;;5055635;28;20032;-80
2021/04/02 03:10:43;;;;;;;37.05;21.10;;;6.90;81.80;;;;;;5054748;28;20025;-79
2021/04/02 03:13:09;;;;;;;38.78;20.70;;;6.80;81.30;;;;;;5056404;28;20533;-80
2021/04/02 03:15:36;;;;;;;36.45;20.05;;;6.80;81.40;;;;;;5055055;28;20025;-80
2021/04/02 03:18:10;;;;;;;38.10;21.13;;;6.80;81.50;;;;;;5054640;28;20471;-80
2021/04/02 03:20:38;;;;;;;33.80;19.08;;;6.80;81.50;;;;;;5055084;28;20382;-80
2021/04/02 03:23:10;;;;;;;36.53;20.08;;;6.80;81.20;;;;;;5054949;28;20379;-80
2021/04/02 03:25:38;;;;;;;38.80;21.38;;;6.80;81.10;;;;;;5055729;28;20479;-80
2021/04/02 03:28:05;;;;;;;39.10;19.30;;;6.80;81.20;;;;;;5054716;28;20036;-80
2021/04/02 03:30:31;;;;;;;33.67;19.65;;;6.80;81.10;;;;;;5055989;28;20555;-79
2021/04/02 03:33:12;;;;;;;32.30;18.00;;;6.90;81.10;;;;;;5055061;28;20029;-80
2021/04/02 03:35:38;;;;;;;;;;;6.90;80.90;;;;;;5055516;28;20025;-79
2021/04/02 03:38:08;;;;;;;26.15;16.15;;;6.90;81.10;;;;;;5054417;28;19915;-80
2021/04/02 03:40:37;;;;;;;30.67;17.42;;;6.90;81.10;;;;;;5054587;28;20032;-80
2021/04/02 03:43:05;;;;;;;32.88;18.30;;;6.90;81.10;;;;;;5054732;28;20170;-80
2021/04/02 03:45:32;;;;;;;29.60;18.42;;;6.90;81.50;;;;;;5054676;28;20032;-80
2021/04/02 03:48:01;;;;;;;26.98;17.23;;;6.90;81.40;;;;;;5056022;28;20029;-81
2021/04/02 03:50:31;;;;;;;28.02;16.95;;;7.00;81.10;;;;;;5054702;28;20489;-80
2021/04/02 03:53:03;;;;;;;29.15;17.42;;;7.00;81.20;;;;;;5054523;28;20431;-82
2021/04/02 03:55:30;;;;;;;28.98;16.65;;;7.00;81.10;;;;;;5054237;28;20021;-81
2021/04/02 03:57:57;;;;;;;32.33;18.77;;;7.00;81.00;;;;;;5054156;28;20044;-82
2021/04/02 04:00:34;;;;;;;29.00;16.95;;;7.00;81.40;;;;;;5054936;28;20036;-82
2021/04/02 04:03:02;;;;;;;35.53;18.75;;;7.00;81.30;;;;;;5054225;28;20024;-81
2021/04/02 04:05:29;;;;;;;30.38;16.60;;;7.10;81.40;;;;;;5054297;28;20116;-81
2021/04/02 04:07:56;;;;;;;29.67;17.17;;;7.10;81.40;;;;;;5055738;28;20025;-81
2021/04/02 04:10:23;;;;;;;27.50;15.82;;;7.10;81.40;;;;;;5054663;28;20029;-83
2021/04/02 04:12:53;;;;;;;30.73;18.17;;;7.20;81.10;;;;;;5055425;28;20032;-82
2021/04/02 04:15:20;;;;;;;30.77;15.80;;;7.20;81.40;;;;;;5054398;28;20037;-82
2021/04/02 04:17:47;;;;;;;32.72;18.70;;;7.20;81.10;;;;;;5053860;28;20021;-82
2021/04/02 04:20:17;;;;;;;34.55;19.85;;;7.20;81.60;;;;;;5053835;28;20055;-81
2021/04/02 04:22:44;;;;;;;32.05;19.25;;;7.20;81.60;;;;;;5054076;28;20525;-82
2021/04/02 04:25:11;;;;;;;29.20;17.25;;;7.20;81.70;;;;;;5055273;28;20033;-82
2021/04/02 04:27:43;;;;;;;29.08;17.70;;;7.20;82.20;;;;;;5053938;28;20542;-82
2021/04/02 04:30:12;;;;;;;30.23;17.33;;;7.20;81.70;;;;;;5053791;28;20084;-82
2021/04/02 04:32:39;;;;;;;39.72;18.77;;;7.30;81.50;;;;;;5055042;28;20057;-81
2021/04/02 04:35:16;;;;;;;29.30;17.25;;;7.30;81.70;;;;;;5053931;28;20028;-82
2021/04/02 04:37:44;;;;;;;36.80;17.88;;;7.40;81.30;;;;;;5054949;28;20462;-82
2021/04/02 04:40:13;;;;;;;37.92;18.70;;;7.40;81.30;;;;;;5053702;28;20025;-81
2021/04/02 04:42:40;;;;;;;29.58;18.55;;;7.40;81.40;;;;;;5053769;28;20470;-83
2021/04/02 04:45:08;;;;;;;34.67;18.77;;;7.50;81.70;;;;;;5053943;28;20033;-85
2021/04/02 04:47:35;;;;;;;34.13;19.80;;;7.50;81.30;;;;;;5053783;28;20478;-84
2021/04/02 04:50:02;;;;;;;30.63;17.75;;;7.50;81.50;;;;;;5053741;28;20029;-85
2021/04/02 04:52:31;;;;;;;32.67;19.88;;;7.60;81.30;;;;;;5052980;28;20029;-84
2021/04/02 04:55:01;;;;;;;34.10;19.65;;;7.60;81.50;;;;;;5055472;28;20019;-84
2021/04/02 04:57:32;;;;;;;42.33;22.50;;;7.70;81.40;;;;;;5053776;28;20025;-88
2021/04/02 05:00:00;;;;;;;40.63;22.08;;;7.60;81.80;;;;;;5054318;28;20056;-82
2021/04/02 05:02:26;;;;;;;36.38;19.83;;;7.60;81.60;;;;;;5052985;28;20466;-82
2021/04/02 05:04:53;;;;;;;38.92;23.02;;;7.70;81.30;;;;;;5054498;28;20025;-83
2021/04/02 05:07:20;;;;;;;46.55;22.58;;;7.80;81.50;;;;;;5054364;28;20025;-82
2021/04/02 05:09:47;;;;;;;33.42;20.40;;;7.80;81.60;;;;;;5053114;28;20071;-82
2021/04/02 05:12:15;;;;;;;40.38;21.77;;;7.70;81.70;;;;;;5053369;28;20440;-82
2021/04/02 05:14:43;;;;;;;43.38;22.17;;;7.80;81.60;;;;;;5053117;28;20063;-82
2021/04/02 05:17:10;;;;;;;38.40;20.23;;;7.80;81.70;;;;;;5052736;28;20108;-83
2021/04/02 05:19:39;;;;;;;35.80;19.58;;;7.90;81.30;;;;;;5052981;28;20467;-83
2021/04/02 05:22:06;;;;;;;40.03;19.27;;;8.00;81.20;;;;;;5054200;28;20057;-84
2021/04/02 05:24:32;;;;;;;33.05;18.88;;;8.00;81.30;;;;;;5052921;28;20052;-88
2021/04/02 05:26:58;;;;;;;34.17;19.48;;;8.00;81.40;;;;;;5052944;28;20071;-87
2021/04/02 05:29:23;;;;;;;35.70;19.65;;;8.10;81.80;;;;;;5053452;28;20410;-88
2021/04/02 05:31:49;;;;;;;33.55;19.05;;;8.10;81.30;;;;;;5053330;28;20049;-88
2021/04/02 05:34:15;;;;;;;34.38;20.15;;;8.20;81.30;;;;;;5054309;28;20116;-87
2021/04/02 05:36:41;;;;;;;38.53;21.38;;;8.20;81.60;;;;;;5053463;28;20159;-88
2021/04/02 05:39:06;;;;;;;34.70;19.17;;;8.30;81.80;;;;;;5053512;28;20021;-85
2021/04/02 05:41:43;;;;;;;32.85;20.35;;;8.30;81.60;;;;;;5053379;28;20032;-87
2021/04/02 05:44:11;;;;;;;35.33;20.80;;;8.40;81.50;;;;;;5053466;28;20161;-86
2021/04/02 05:46:40;;;;;;;34.45;19.95;;;8.40;81.50;;;;;;5053357;28;20025;-86
2021/04/02 05:49:06;;;;;;;33.15;21.08;;;8.40;81.60;;;;;;5053330;28;20035;-86
2021/04/02 05:51:33;;;;;;;34.72;20.10;;;8.40;81.70;;;;;;5052999;28;20024;-87
2021/04/02 05:53:59;;;;;;;41.15;21.15;;;8.50;81.70;;;;;;5054036;28;20021;-86
2021/04/02 05:56:26;;;;;;;33.80;19.27;;;8.50;81.70;;;;;;5053167;28;20029;-86
2021/04/02 05:58:52;;;;;;;32.97;19.20;;;8.60;81.60;;;;;;5053382;28;20017;-87
2021/04/02 06:01:18;;;;;;;31.67;18.85;;;8.60;81.50;;;;;;5053238;28;20028;-87
2021/04/02 06:03:44;;;;;;;31.33;19.35;;;8.70;81.20;;;;;;5054252;28;20441;-86
2021/04/02 06:06:13;;;;;;;32.30;19.55;;;8.70;80.90;;;;;;5054324;28;20025;-86
2021/04/02 06:08:46;;;;;;;42.05;25.83;;;8.80;80.80;;;;;;5053940;28;20021;-85
2021/04/02 06:11:13;;;;;;;31.17;19.90;;;8.80;81.20;;;;;;5055179;28;20055;-87
2021/04/02 06:13:39;;;;;;;60.22;39.13;;;8.90;80.80;;;;;;5053311;28;20041;-86
2021/04/02 06:16:06;;;;;;;44.28;22.48;;;8.90;81.00;;;;;;5053524;28;20018;-86
2021/04/02 06:18:37;;;;;;;45.45;23.02;;;8.80;81.30;;;;;;5063079;28;20033;-87
2021/04/02 06:21:03;;;;;;;35.72;19.45;;;8.90;81.40;;;;;;5063472;28;20029;-86
2021/04/02 06:23:32;;;;;;;33.58;20.60;;;8.90;81.20;;;;;;5052623;28;20032;-86
2021/04/02 06:26:04;;;;;;;38.47;22.17;;;8.90;81.30;;;;;;5053221;28;20731;-86
2021/04/02 06:28:32;;;;;;;33.20;20.42;;;8.90;81.70;;;;;;5053881;28;20059;-87
2021/04/02 06:30:59;;;;;;;41.38;20.67;;;9.00;81.50;;;;;;5052307;28;20419;-85
2021/04/02 06:33:35;;;;;;;40.63;21.25;;;9.10;81.40;;;;;;5052727;28;20053;-88
2021/04/02 06:36:09;;;;;;;32.20;18.80;;;9.20;81.10;;;;;;5052791;28;20063;-88
2021/04/02 06:38:40;;;;;;;34.20;19.63;;;9.20;80.80;;;;;;5052592;28;20025;-87
2021/04/02 06:41:06;;;;;;;31.50;18.65;;;9.20;81.00;;;;;;5052481;28;20071;-86
2021/04/02 06:43:47;;;;;;;36.95;19.55;;;9.20;80.90;;;;;;5052370;28;20413;-86
2021/04/02 06:46:18;;;;;;;32.65;19.13;;;9.30;81.00;;;;;;5052307;28;20025;-89
2021/04/02 06:48:45;;;;;;;28.80;18.33;;;9.40;80.90;;;;;;5052496;28;20029;-86
2021/04/02 06:51:15;;;;;;;30.88;18.15;;;9.50;80.70;;;;;;5052351;28;20029;-87
2021/04/02 06:53:44;;;;;;;30.33;18.35;;;9.50;80.50;;;;;;5052450;28;20036;-87
2021/04/02 06:56:12;;;;;;;32.28;18.67;;;9.60;80.30;;;;;;5053715;28;20502;-87
2021/04/02 06:58:39;;;;;;;28.58;18.67;;;9.70;80.20;;;;;;5053747;28;20082;-87
2021/04/02 07:01:06;;;;;;;31.10;18.52;;;9.70;80.20;;;;;;5052252;28;20021;-86
2021/04/02 07:03:33;;;;;;;25.95;16.90;;;9.80;80.20;;;;;;5052505;28;20036;-87
2021/04/02 07:06:06;;;;;;;29.58;18.38;;;9.90;79.70;;;;;;5052194;28;20029;-86
2021/04/02 07:08:33;;;;;;;26.33;16.73;;;10.00;79.80;;;;;;5053025;28;20379;-87
2021/04/02 07:11:00;;;;;;;28.77;18.58;;;10.20;79.10;;;;;;5052275;28;20033;-87
2021/04/02 07:13:32;;;;;;;30.77;18.52;;;10.30;78.90;;;;;;5052451;28;20094;-86
2021/04/02 07:15:58;;;;;;;35.75;19.00;;;10.40;78.60;;;;;;5055446;28;20017;-87
2021/04/02 07:18:25;;;;;;;31.13;19.33;;;10.50;78.30;;;;;;5056268;28;20028;-90
2021/04/02 07:20:50;;;;;;;30.10;17.75;;;10.60;77.80;;;;;;5055802;28;20021;-88
2021/04/02 07:23:17;;;;;;;31.77;17.60;;;10.70;77.60;;;;;;5055731;28;20124;-87
2021/04/02 07:25:43;;;;;;;29.63;16.70;;;10.80;77.60;;;;;;5055730;28;20075;-87
2021/04/02 07:28:10;;;;;;;29.27;17.52;;;10.90;77.10;;;;;;5056379;28;20029;-87
2021/04/02 07:30:37;;;;;;;29.10;18.38;;;11.00;76.70;;;;;;5055633;28;20132;-86
2021/04/02 07:33:08;;;;;;;27.33;17.73;;;11.10;76.70;;;;;;5055667;28;20035;-87
2021/04/02 07:35:37;;;;;;;25.05;16.90;;;11.30;76.40;;;;;;5055490;28;20014;-87
2021/04/02 07:38:03;;;;;;;28.52;18.27;;;11.50;75.80;;;;;;5055359;28;20021;-87
2021/04/02 07:40:33;;;;;;;30.02;17.60;;;11.60;75.80;;;;;;5055377;28;20021;-86
2021/04/02 07:43:01;;;;;;;30.15;18.48;;;11.70;75.40;;;;;;5056035;28;20036;-86
2021/04/02 07:45:31;;;;;;;24.90;16.08;;;11.70;74.30;;;;;;5057052;28;20029;-87
2021/04/02 07:48:11;;;;;;;30.27;17.73;;;11.80;73.70;;;;;;5056287;28;20029;-86
2021/04/02 07:50:41;;;;;;;37.00;19.43;;;11.80;73.60;;;;;;5055221;28;20029;-86
2021/04/02 07:53:19;;;;;;;31.00;19.83;;;11.70;74.10;;;;;;5055153;28;20029;-86
2021/04/02 07:56:12;;;;;;;29.30;19.55;;;11.70;74.40;;;;;;5055239;28;20478;-86
2021/04/02 07:58:46;;;;;;;28.83;18.70;;;11.80;74.20;;;;;;5055607;28;20056;-86
2021/04/02 08:01:12;;;;;;;28.65;17.90;;;11.80;74.30;;;;;;5055778;28;20466;-86
2021/04/02 08:03:38;;;;;;;23.27;16.40;;;11.70;74.30;;;;;;5057094;28;20458;-85
2021/04/02 08:06:11;;;;;;;27.77;17.77;;;11.70;74.20;;;;;;5054896;28;20053;-86
2021/04/02 08:08:48;;;;;;;28.30;17.63;;;11.60;74.80;;;;;;5055500;28;20025;-86
2021/04/02 08:11:45;;;;;;;24.73;16.40;;;11.60;74.70;;;;;;5055016;28;20025;-83
2021/04/02 08:14:13;;;;;;;20.83;15.02;;;11.70;73.80;;;;;;5054741;28;20463;-88
2021/04/02 08:16:42;;;;;;;22.67;15.25;;;11.70;73.90;;;;;;5054982;28;20021;-84
2021/04/02 08:19:12;;;;;;;28.07;17.43;;;11.80;73.80;;;;;;5054656;28;20090;-85
2021/04/02 08:21:41;;;;;;;22.38;14.73;;;11.80;73.90;;;;;;5054875;28;20025;-86
2021/04/02 08:24:08;;;;;;;27.75;16.83;;;11.80;74.00;;;;;;5055924;28;20025;-85
2021/04/02 08:26:36;;;;;;;22.48;14.65;;;11.90;73.70;;;;;;5053394;28;20064;-83
2021/04/02 08:29:05;;;;;;;22.65;15.40;;;11.90;73.70;;;;;;5054410;28;20466;-85
2021/04/02 08:31:30;;;;;;;24.73;15.18;;;12.00;72.70;;;;;;5056115;28;20055;-84
2021/04/02 08:33:57;;;;;;;26.25;16.10;;;12.00;73.10;;;;;;5054482;28;20391;-85
2021/04/02 08:36:23;;;;;;;22.52;15.45;;;12.00;73.20;;;;;;5054100;28;20036;-86
2021/04/02 08:38:50;;;;;;;28.83;16.52;;;12.10;72.70;;;;;;5054356;28;20039;-83
2021/04/02 08:41:24;;;;;;;30.58;16.58;;;12.10;72.80;;;;;;5053908;28;20021;-84
2021/04/02 08:43:51;;;;;;;26.58;16.90;;;12.10;73.10;;;;;;5053995;28;20441;-85
2021/04/02 08:46:31;;;;;;;26.63;16.45;;;12.30;73.00;;;;;;5054073;28;20470;-83
2021/04/02 08:48:57;;;;;;;22.70;14.20;;;12.30;72.80;;;;;;5054003;28;20467;-82
2021/04/02 08:51:23;;;;;;;22.50;14.57;;;12.50;72.10;;;;;;5053634;28;20025;-83
2021/04/02 08:53:49;;;;;;;25.75;16.05;;;12.60;72.00;;;;;;5053627;28;20029;-83
2021/04/02 08:56:19;;;;;;;23.88;14.95;;;12.70;71.90;;;;;;5053975;28;20348;-84
2021/04/02 08:58:46;;;;;;;23.08;15.65;;;12.80;71.80;;;;;;5055082;28;20028;-84
2021/04/02 09:01:15;;;;;;;27.35;16.02;;;13.00;71.20;;;;;;5053847;28;20112;-84
2021/04/02 09:03:41;;;;;;;24.15;15.55;;;13.20;71.10;;;;;;5054756;28;20028;-84
2021/04/02 09:06:08;;;;;;;25.67;15.80;;;13.30;71.30;;;;;;5053448;28;20542;-84
2021/04/02 09:08:37;;;;;;;25.80;15.32;;;13.40;70.90;;;;;;5054498;28;20029;-84
2021/04/02 09:11:11;;;;;;;24.05;16.10;;;13.60;70.90;;;;;;5053384;28;20035;-84
2021/04/02 09:13:50;;;;;;;25.58;17.15;;;13.70;69.90;;;;;;5053238;28;20501;-84
2021/04/02 09:16:18;;;;;;;23.75;16.42;;;13.70;70.00;;;;;;5053386;28;20383;-85
2021/04/02 09:18:53;;;;;;;22.85;14.93;;;13.90;69.20;;;;;;5053263;28;20032;-84
2021/04/02 09:21:21;;;;;;;24.30;15.57;;;13.90;68.70;;;;;;5053081;28;20075;-84
2021/04/02 09:23:54;;;;;;;24.00;15.55;;;13.90;69.50;;;;;;5053146;28;20387;-84
2021/04/02 09:26:21;;;;;;;26.40;17.13;;;14.00;69.10;;;;;;5053298;28;20029;-85
2021/04/02 09:28:48;;;;;;;24.75;14.73;;;14.10;68.80;;;;;;5054407;28;20029;-85
2021/04/02 09:31:18;;;;;;;27.42;16.25;;;14.10;68.60;;;;;;5052899;28;20131;-84
2021/04/02 09:33:46;;;;;;;20.90;14.40;;;14.20;68.30;;;;;;5054153;28;20036;-84
2021/04/02 09:36:13;;;;;;;25.42;15.40;;;14.30;68.70;;;;;;5052826;28;20029;-85
2021/04/02 09:38:39;;;;;;;27.17;18.58;;;14.50;67.70;;;;;;5052521;28;20021;-81
2021/04/02 09:41:05;;;;;;;26.92;16.67;;;14.60;67.30;;;;;;5052769;28;20071;-81
2021/04/02 09:43:43;;;;;;;27.73;16.88;;;14.60;67.30;;;;;;5052756;28;20052;-82
2021/04/02 09:46:26;;;;;;;26.02;15.23;;;14.70;67.00;;;;;;5052542;28;20067;-79
2021/04/02 09:48:52;;;;;;;30.55;19.08;;;14.70;67.00;;;;;;5054282;28;20109;-83
2021/04/02 09:51:18;;;;;;;26.45;18.13;;;14.80;66.50;;;;;;5052618;28;20446;-84
2021/04/02 09:53:44;;;;;;;20.08;14.70;;;14.70;66.50;;;;;;5053208;28;20033;-83
2021/04/02 09:56:10;;;;;;;27.17;16.38;;;14.60;67.90;;;;;;5053786;28;20021;-84
2021/04/02 09:58:35;;;;;;;30.25;18.98;;;14.70;69.70;;;;;;5054012;28;20075;-84
2021/04/02 10:01:01;;;;;;;27.92;16.73;;;14.60;70.60;;;;;;5052967;28;20068;-83
2021/04/02 10:03:27;;;;;;;28.02;18.92;;;14.40;72.20;;;;;;5053900;28;20029;-83
2021/04/02 10:05:52;;;;;;;37.00;20.60;;;14.30;72.90;;;;;;5053512;28;20021;-83
2021/04/02 10:08:18;;;;;;;28.33;19.17;;;14.30;74.50;;;;;;5053917;28;20025;-83
2021/04/02 10:10:44;;;;;;;31.58;19.98;;;14.30;75.80;;;;;;5052469;28;20029;-83
2021/04/02 10:13:09;;;;;;;31.20;21.33;;;14.30;76.20;;;;;;5052350;28;20463;-82
2021/04/02 10:15:35;;;;;;;29.42;19.10;;;14.20;77.90;;;;;;5052108;28;20029;-82
2021/04/02 10:18:01;;;;;;;24.65;17.58;;;14.20;77.30;;;;;;5052567;28;20024;-82
2021/04/02 10:20:27;;;;;;;25.80;16.73;;;14.20;76.80;;;;;;5052366;28;20021;-83
2021/04/02 10:22:52;;;;;;;28.08;17.30;;;14.20;76.60;;;;;;5052901;28;20029;-82
2021/04/02 10:25:18;;;;;;;24.20;16.60;;;14.10;76.90;;;;;;5052299;28;20035;-83
2021/04/02 10:27:44;;;;;;;24.73;17.25;;;14.10;78.10;;;;;;5052128;28;20106;-83
2021/04/02 10:30:10;;;;;;;27.98;17.45;;;14.20;77.30;;;;;;5035743;28;20103;-83
2021/04/02 10:32:35;;;;;;;27.20;17.42;;;14.10;77.50;;;;;;5051904;28;20021;-83
2021/04/02 10:35:03;;;;;;;26.02;17.98;;;14.10;77.10;;;;;;5052004;28;20017;-82
2021/04/02 10:37:28;;;;;;;28.55;18.77;;;14.10;78.10;;;;;;5052003;28;20017;-82
2021/04/02 10:39:54;;;;;;;23.63;16.73;;;13.90;79.10;;;;;;5052073;28;20025;-81
2021/04/02 10:42:20;;;;;;;26.02;16.85;;;13.90;78.40;;;;;;5053465;28;20079;-83
2021/04/02 10:44:46;;;;;;;24.48;16.58;;;13.80;78.90;;;;;;5052477;28;20025;-83
2021/04/02 10:47:11;;;;;;;28.23;18.25;;;13.70;79.50;;;;;;5051936;28;20048;-82
2021/04/02 10:49:37;;;;;;;31.60;20.35;;;13.70;81.00;;;;;;5053353;28;20021;-82
2021/04/02 10:52:04;;;;;;;29.63;19.67;;;13.60;81.80;;;;;;5056950;28;20037;-82
2021/04/02 10:54:29;;;;;;;28.85;20.83;;;13.50;83.30;;;;;;5055827;28;20083;-82
2021/04/02 10:56:55;;;;;;;25.50;19.42;;;13.50;84.40;;;;;;5057139;28;20033;-81
2021/04/02 10:59:21;;;;;;;36.85;21.88;;;13.40;85.10;;;;;;5054938;28;20030;-82
2021/04/02 11:01:48;;;;;;;37.00;23.70;;;13.40;84.00;;;;;;5056183;28;20024;-81
2021/04/02 11:04:13;;;;;;;34.40;22.58;;;13.40;83.70;;;;;;5054946;28;20070;-81
2021/04/02 11:06:39;;;;;;;38.20;24.15;;;13.40;83.70;;;;;;5054685;28;20032;-81
2021/04/02 11:09:07;;;;;;;36.00;24.73;;;13.40;84.00;;;;;;5056457;28;20024;-81
2021/04/02 11:11:33;;;;;;;43.45;27.77;;;13.40;84.70;;;;;;5055454;28;20025;-81
2021/04/02 11:13:59;;;;;;;40.28;25.73;;;13.30;85.60;;;;;;5055352;28;20025;-81
2021/04/02 11:16:24;;;;;;;42.55;26.38;;;13.20;86.40;;;;;;5055530;28;20048;-81
2021/04/02 11:18:50;;;;;;;36.92;25.30;;;13.10;87.00;;;;;;5055473;28;20021;-81
2021/04/02 11:21:16;;;;;;;40.63;25.77;;;12.90;87.20;;;;;;5056511;28;20087;-81
2021/04/02 11:23:42;;;;;;;49.60;30.85;;;12.80;88.00;;;;;;5055174;28;20032;-81
2021/04/02 11:26:09;;;;;;;47.38;31.55;;;12.70;88.70;;;;;;5056300;28;20029;-81
2021/04/02 11:28:35;;;;;;;55.53;33.95;;;12.60;89.20;;;;;;5055154;28;20116;-81
2021/04/02 11:31:00;;;;;;;71.25;40.13;;;12.60;89.50;;;;;;5054793;28;20064;-81
2021/04/02 11:33:26;;;;;;;79.63;44.40;;;12.50;90.10;;;;;;5056033;28;20427;-81
2021/04/02 11:35:52;;;;;;;156.00;74.78;;;12.30;90.50;;;;;;5054841;28;20047;-81
2021/04/02 11:38:17;;;;;;;80.38;40.25;;;12.30;90.70;;;;;;5056221;28;20025;-81
2021/04/02 11:40:44;;;;;;;42.72;26.30;;;12.20;90.80;;;;;;5054834;28;20782;-81
2021/04/02 11:43:10;;;;;;;92.05;45.05;;;12.20;91.20;;;;;;5054626;28;20040;-82
2021/04/02 11:45:35;;;;;;;228.10;107.20;;;12.10;91.30;;;;;;5056015;28;20029;-81
2021/04/02 11:48:01;;;;;;;102.88;54.50;;;12.00;91.50;;;;;;5054880;28;20024;-81
2021/04/02 11:50:27;;;;;;;81.30;43.70;;;11.90;91.50;;;;;;5055934;28;20036;-81
2021/04/02 11:52:52;;;;;;;93.30;50.58;;;11.80;91.50;;;;;;5054518;28;20080;-81
2021/04/02 11:55:18;;;;;;;64.05;36.05;;;11.80;91.60;;;;;;5054482;28;20166;-82
2021/04/02 11:57:44;;;;;;;42.47;26.27;;;11.80;91.50;;;;;;5054760;28;20063;-81
2021/04/02 12:00:13;;;;;;;46.65;28.33;;;11.80;91.70;;;;;;5054505;28;20029;-81
2021/04/02 12:02:39;;;;;;;44.10;30.00;;;11.70;91.70;;;;;;5054439;28;20029;-82
2021/04/02 12:05:07;;;;;;;42.78;28.48;;;11.60;92.10;;;;;;5054726;28;20021;-81
2021/04/02 12:07:32;;;;;;;42.38;27.20;;;11.60;92.20;;;;;;5054141;28;20029;-81
2021/04/02 12:09:58;;;;;;;42.72;28.65;;;11.50;92.20;;;;;;5054398;28;20017;-82
2021/04/02 12:12:24;;;;;;;37.45;24.42;;;11.50;92.40;;;;;;5055691;28;20897;-81
2021/04/02 12:14:49;;;;;;;37.95;25.90;;;11.40;92.60;;;;;;5054212;28;20032;-82
2021/04/02 12:17:15;;;;;;;40.70;26.23;;;11.30;92.70;;;;;;5054229;28;20033;-82
2021/04/02 12:19:41;;;;;;;38.33;25.27;;;11.40;92.70;;;;;;5054192;28;20115;-81
2021/04/02 12:22:07;;;;;;;55.90;34.00;;;11.40;92.60;;;;;;5054410;28;20025;-81
2021/04/02 12:24:33;;;;;;;57.90;33.25;;;11.40;92.50;;;;;;5054229;28;20394;-81
2021/04/02 12:26:59;;;;;;;100.30;46.90;;;11.40;92.60;;;;;;5054136;28;20032;-81
2021/04/02 12:29:24;;;;;;;96.60;44.63;;;11.40;92.70;;;;;;5054223;28;20033;-81
2021/04/02 12:31:50;;;;;;;77.57;40.25;;;11.40;92.60;;;;;;5053849;28;20135;-82
2021/04/02 12:34:16;;;;;;;55.88;31.55;;;11.50;92.70;;;;;;5053874;28;20065;-81
2021/04/02 12:36:41;;;;;;;76.60;41.40;;;11.50;92.70;;;;;;5053976;28;20032;-82
2021/04/02 12:39:07;;;;;;;47.38;28.90;;;11.50;92.70;;;;;;5053928;28;20032;-82